Kendall Tamiami Executive Airport
KTMB : rendu visible

Aérodrome :











RETROUVEZ-NOUS SUR...

 
LOGIN :

S'inscrire | Disclaimer

   EN    FR    IT 

 









Légende :    VFR   VFR Marginal   IFR   IFR Intensif   IFR Très Intensif
Visi : 
Plafond : 
>= 8 km
>= 3000ft
5 à 8 km
1000 à 3000 ft
1500m à 5 km
500 à 1000 ft
800 à 1500m
200 à 500 ft
< 800m
< 200 ft
Symboles :   Orages  Brouillard  Fortes neiges  Fortes précipitations  Vent > 20 kt






- Altitude de l'aérodrome : 8 ft


KTMB - Kendall Tamiami Executive

DERNIER METAR :
  • 131653Z 01010KT 10SM FEW025 27/21 A3000 RMK AO2 SLP159 T02720206

METARs EXPIRÉS :
  • 131553Z 36010KT 10SM CLR 27/21 A3002 RMK AO2 SLP164 T02670206
  • 131453Z 36008KT 10SM FEW090 26/21 A3002 RMK AO2 SLP164 T02610206 51020

TAF KTMB
Valide du 13 à 15h jusqu'au 14 à 12h UTC


131442Z 1315/1412 02010KT P6SM BKN100
FM131800 06015G25KT P6SM VCSH SCT025 BKN050 BKN100
FM140300 07007KT P6SM FEW030 SCT050 BKN100



MET'MAP, la Météo Aéronautique d'un coup d'oeil ! - Copyright ORBIFLY Décembre 2007 - Disclaimer

ORBIFLY MET'MAP TEAM :

Programmation & Développement : Alexandra Zaïnal
Conception & Développement : Baudouin d'Aumeries
Co-Programmation & Développement : Marc-Olivier Méhu
Soutien technique & logistique : Manuel Goepfert

Contact : metmap@orbifly.com




SOURCES & CREDITS :

   NOAA       Earth
Advisory